Terminal Aerodrome Forecast
Issued by NWS

Home | Current Version | Previous Version | Text Only | Print | Product List | Glossary On
Versions: 1 2 3 4 5 6 7 8 9 10 11 12 13 14
445
FTUS42 TJSJ 232339
TAFJMZ
TAF
TJMZ 232339Z 2400/2424 07004KT P6SM SCT030 BKN060
     FM241530 24010KT P6SM SCT025 BKN040
     FM241740 VRB08G16KT P6SM -SHRA VCTS FEW025 BKN030CB BKN045
     FM242030 07007KT P6SM VCSH FEW025 SCT030 BKN040
      AMD NOT SKED=

USA.gov is the U.S. government's official web portal to all federal, state and local government web resources and services.